sensor_id;sensor_type;location;lat;lon;timestamp;P1;durP1;ratioP1;P2;durP2;ratioP2
28166;SDS011;15455;53.376;-6.262;2023-04-25T00:02:33;4.13;;;1.40;;
28166;SDS011;15455;53.376;-6.262;2023-04-25T00:05:20;4.45;;;1.10;;
28166;SDS011;15455;53.376;-6.262;2023-04-25T00:08:08;4.80;;;2.00;;
28166;SDS011;15455;53.376;-6.262;2023-04-25T00:10:54;2.85;;;2.00;;
28166;SDS011;15455;53.376;-6.262;2023-04-25T00:13:39;4.65;;;1.40;;
28166;SDS011;15455;53.376;-6.262;2023-04-25T00:16:27;2.72;;;1.23;;
28166;SDS011;15455;53.376;-6.262;2023-04-25T00:19:14;1.45;;;1.10;;
28166;SDS011;15455;53.376;-6.262;2023-04-25T00:22:00;2.60;;;1.23;;
28166;SDS011;15455;53.376;-6.262;2023-04-25T00:24:45;4.43;;;1.10;;
28166;SDS011;15455;53.376;-6.262;2023-04-25T00:27:31;2.63;;;1.08;;
28166;SDS011;15455;53.376;-6.262;2023-04-25T00:30:17;2.45;;;1.30;;
28166;SDS011;15455;53.376;-6.262;2023-04-25T00:33:03;3.13;;;1.23;;
28166;SDS011;15455;53.376;-6.262;2023-04-25T00:35:48;5.03;;;2.03;;
28166;SDS011;15455;53.376;-6.262;2023-04-25T00:38:33;2.30;;;1.45;;
28166;SDS011;15455;53.376;-6.262;2023-04-25T00:41:19;4.20;;;1.77;;
28166;SDS011;15455;53.376;-6.262;2023-04-25T00:44:05;4.43;;;1.92;;
28166;SDS011;15455;53.376;-6.262;2023-04-25T00:46:53;4.05;;;1.70;;
28166;SDS011;15455;53.376;-6.262;2023-04-25T00:49:39;3.97;;;1.20;;
28166;SDS011;15455;53.376;-6.262;2023-04-25T00:52:25;1.85;;;1.15;;
28166;SDS011;15455;53.376;-6.262;2023-04-25T00:55:11;3.28;;;1.67;;
28166;SDS011;15455;53.376;-6.262;2023-04-25T00:57:58;2.45;;;1.17;;
28166;SDS011;15455;53.376;-6.262;2023-04-25T01:00:44;1.67;;;1.00;;
28166;SDS011;15455;53.376;-6.262;2023-04-25T01:03:35;4.18;;;1.48;;
28166;SDS011;15455;53.376;-6.262;2023-04-25T01:06:26;2.13;;;0.90;;
28166;SDS011;15455;53.376;-6.262;2023-04-25T01:09:12;4.43;;;1.20;;
28166;SDS011;15455;53.376;-6.262;2023-04-25T01:11:59;4.15;;;1.38;;
28166;SDS011;15455;53.376;-6.262;2023-04-25T01:14:46;2.22;;;1.27;;
28166;SDS011;15455;53.376;-6.262;2023-04-25T01:17:32;2.13;;;1.25;;
28166;SDS011;15455;53.376;-6.262;2023-04-25T01:20:20;4.60;;;1.45;;
28166;SDS011;15455;53.376;-6.262;2023-04-25T01:23:11;7.43;;;1.48;;
28166;SDS011;15455;53.376;-6.262;2023-04-25T01:25:57;1.38;;;1.02;;
28166;SDS011;15455;53.376;-6.262;2023-04-25T01:28:43;3.20;;;1.48;;
28166;SDS011;15455;53.376;-6.262;2023-04-25T01:31:30;2.35;;;1.55;;
28166;SDS011;15455;53.376;-6.262;2023-04-25T01:34:17;2.80;;;1.33;;
28166;SDS011;15455;53.376;-6.262;2023-04-25T01:37:02;1.40;;;1.30;;
28166;SDS011;15455;53.376;-6.262;2023-04-25T01:39:47;3.42;;;1.55;;
28166;SDS011;15455;53.376;-6.262;2023-04-25T01:42:34;4.90;;;1.67;;
28166;SDS011;15455;53.376;-6.262;2023-04-25T01:45:21;2.42;;;1.58;;
28166;SDS011;15455;53.376;-6.262;2023-04-25T01:48:09;2.50;;;1.85;;
28166;SDS011;15455;53.376;-6.262;2023-04-25T01:50:56;6.40;;;1.58;;
28166;SDS011;15455;53.376;-6.262;2023-04-25T01:53:42;1.52;;;1.30;;
28166;SDS011;15455;53.376;-6.262;2023-04-25T01:56:32;4.22;;;1.35;;
28166;SDS011;15455;53.376;-6.262;2023-04-25T01:59:19;3.85;;;1.65;;
28166;SDS011;15455;53.376;-6.262;2023-04-25T02:02:17;2.45;;;1.42;;
28166;SDS011;15455;53.376;-6.262;2023-04-25T02:05:03;2.90;;;1.33;;
28166;SDS011;15455;53.376;-6.262;2023-04-25T02:07:51;2.47;;;1.80;;
28166;SDS011;15455;53.376;-6.262;2023-04-25T02:10:36;7.65;;;2.08;;
28166;SDS011;15455;53.376;-6.262;2023-04-25T02:13:41;3.33;;;1.92;;
28166;SDS011;15455;53.376;-6.262;2023-04-25T02:16:53;6.78;;;2.88;;
28166;SDS011;15455;53.376;-6.262;2023-04-25T02:19:40;9.18;;;3.80;;
28166;SDS011;15455;53.376;-6.262;2023-04-25T02:22:25;12.40;;;4.57;;
28166;SDS011;15455;53.376;-6.262;2023-04-25T02:25:14;7.47;;;3.20;;
28166;SDS011;15455;53.376;-6.262;2023-04-25T02:28:01;8.90;;;3.38;;
28166;SDS011;15455;53.376;-6.262;2023-04-25T02:30:47;6.57;;;3.67;;
28166;SDS011;15455;53.376;-6.262;2023-04-25T02:33:33;9.88;;;3.15;;
28166;SDS011;15455;53.376;-6.262;2023-04-25T02:36:18;4.03;;;2.63;;
28166;SDS011;15455;53.376;-6.262;2023-04-25T02:39:06;9.73;;;2.97;;
28166;SDS011;15455;53.376;-6.262;2023-04-25T02:41:52;8.20;;;2.20;;
28166;SDS011;15455;53.376;-6.262;2023-04-25T02:44:39;3.03;;;2.00;;
28166;SDS011;15455;53.376;-6.262;2023-04-25T02:47:24;3.75;;;2.45;;
28166;SDS011;15455;53.376;-6.262;2023-04-25T02:50:10;3.25;;;2.00;;
28166;SDS011;15455;53.376;-6.262;2023-04-25T02:52:58;3.47;;;2.30;;
28166;SDS011;15455;53.376;-6.262;2023-04-25T02:55:48;5.47;;;2.40;;
28166;SDS011;15455;53.376;-6.262;2023-04-25T02:58:34;8.48;;;2.08;;
28166;SDS011;15455;53.376;-6.262;2023-04-25T03:01:20;5.30;;;2.10;;
28166;SDS011;15455;53.376;-6.262;2023-04-25T03:04:06;3.65;;;2.10;;
28166;SDS011;15455;53.376;-6.262;2023-04-25T03:06:52;3.53;;;2.40;;
28166;SDS011;15455;53.376;-6.262;2023-04-25T03:09:39;2.80;;;1.92;;
28166;SDS011;15455;53.376;-6.262;2023-04-25T03:12:26;5.47;;;2.30;;
28166;SDS011;15455;53.376;-6.262;2023-04-25T03:15:11;7.13;;;2.55;;
28166;SDS011;15455;53.376;-6.262;2023-04-25T03:17:56;4.72;;;2.25;;
28166;SDS011;15455;53.376;-6.262;2023-04-25T03:20:42;7.28;;;2.72;;
28166;SDS011;15455;53.376;-6.262;2023-04-25T03:23:28;4.90;;;2.05;;
28166;SDS011;15455;53.376;-6.262;2023-04-25T03:26:13;4.50;;;1.90;;
28166;SDS011;15455;53.376;-6.262;2023-04-25T03:28:59;8.25;;;2.15;;
28166;SDS011;15455;53.376;-6.262;2023-04-25T03:31:46;8.15;;;1.65;;
28166;SDS011;15455;53.376;-6.262;2023-04-25T03:34:31;4.47;;;2.30;;
28166;SDS011;15455;53.376;-6.262;2023-04-25T03:37:17;6.57;;;2.25;;
28166;SDS011;15455;53.376;-6.262;2023-04-25T03:40:03;2.72;;;2.08;;
28166;SDS011;15455;53.376;-6.262;2023-04-25T03:43:09;12.30;;;2.30;;
28166;SDS011;15455;53.376;-6.262;2023-04-25T03:45:57;5.72;;;1.90;;
28166;SDS011;15455;53.376;-6.262;2023-04-25T03:48:43;7.95;;;2.55;;
28166;SDS011;15455;53.376;-6.262;2023-04-25T03:51:35;14.18;;;2.22;;
28166;SDS011;15455;53.376;-6.262;2023-04-25T03:54:20;6.25;;;1.98;;
28166;SDS011;15455;53.376;-6.262;2023-04-25T03:57:14;4.25;;;2.40;;
28166;SDS011;15455;53.376;-6.262;2023-04-25T04:00:00;6.07;;;2.00;;
28166;SDS011;15455;53.376;-6.262;2023-04-25T04:02:57;4.50;;;2.40;;
28166;SDS011;15455;53.376;-6.262;2023-04-25T04:05:43;9.07;;;3.47;;
28166;SDS011;15455;53.376;-6.262;2023-04-25T04:08:28;5.50;;;2.67;;
28166;SDS011;15455;53.376;-6.262;2023-04-25T04:11:14;5.97;;;2.75;;
28166;SDS011;15455;53.376;-6.262;2023-04-25T04:13:59;6.50;;;2.60;;
28166;SDS011;15455;53.376;-6.262;2023-04-25T04:16:46;7.72;;;3.40;;
28166;SDS011;15455;53.376;-6.262;2023-04-25T04:19:31;4.88;;;2.40;;
28166;SDS011;15455;53.376;-6.262;2023-04-25T04:22:25;14.00;;;2.95;;
28166;SDS011;15455;53.376;-6.262;2023-04-25T04:25:15;7.38;;;2.75;;
28166;SDS011;15455;53.376;-6.262;2023-04-25T04:28:32;3.33;;;1.85;;
28166;SDS011;15455;53.376;-6.262;2023-04-25T04:31:23;11.93;;;2.90;;
28166;SDS011;15455;53.376;-6.262;2023-04-25T04:34:08;6.78;;;2.47;;
28166;SDS011;15455;53.376;-6.262;2023-04-25T04:36:55;5.57;;;2.50;;
28166;SDS011;15455;53.376;-6.262;2023-04-25T04:39:41;3.45;;;2.63;;
28166;SDS011;15455;53.376;-6.262;2023-04-25T04:42:41;4.88;;;2.47;;
28166;SDS011;15455;53.376;-6.262;2023-04-25T04:45:52;10.35;;;4.43;;
28166;SDS011;15455;53.376;-6.262;2023-04-25T04:49:00;8.77;;;2.80;;
28166;SDS011;15455;53.376;-6.262;2023-04-25T04:52:03;7.63;;;3.47;;
28166;SDS011;15455;53.376;-6.262;2023-04-25T04:54:55;7.93;;;2.88;;
28166;SDS011;15455;53.376;-6.262;2023-04-25T04:58:03;5.88;;;2.38;;
28166;SDS011;15455;53.376;-6.262;2023-04-25T05:01:24;6.68;;;2.42;;
28166;SDS011;15455;53.376;-6.262;2023-04-25T05:04:20;5.28;;;2.38;;
28166;SDS011;15455;53.376;-6.262;2023-04-25T05:07:25;5.47;;;3.00;;
28166;SDS011;15455;53.376;-6.262;2023-04-25T05:10:30;7.78;;;2.95;;
28166;SDS011;15455;53.376;-6.262;2023-04-25T05:13:28;6.00;;;3.28;;
28166;SDS011;15455;53.376;-6.262;2023-04-25T05:16:29;7.72;;;3.00;;
28166;SDS011;15455;53.376;-6.262;2023-04-25T05:19:32;3.90;;;2.30;;
28166;SDS011;15455;53.376;-6.262;2023-04-25T05:22:38;10.25;;;3.30;;
28166;SDS011;15455;53.376;-6.262;2023-04-25T05:25:33;7.82;;;3.72;;
28166;SDS011;15455;53.376;-6.262;2023-04-25T05:28:39;9.27;;;3.05;;
28166;SDS011;15455;53.376;-6.262;2023-04-25T05:31:35;6.72;;;3.63;;
28166;SDS011;15455;53.376;-6.262;2023-04-25T05:34:31;9.32;;;4.00;;
28166;SDS011;15455;53.376;-6.262;2023-04-25T05:37:19;10.27;;;3.92;;
28166;SDS011;15455;53.376;-6.262;2023-04-25T05:40:14;21.70;;;4.25;;
28166;SDS011;15455;53.376;-6.262;2023-04-25T05:43:02;14.25;;;4.22;;
28166;SDS011;15455;53.376;-6.262;2023-04-25T05:46:20;4.38;;;3.03;;
28166;SDS011;15455;53.376;-6.262;2023-04-25T05:49:20;8.40;;;4.03;;
28166;SDS011;15455;53.376;-6.262;2023-04-25T05:52:24;5.88;;;3.15;;
28166;SDS011;15455;53.376;-6.262;2023-04-25T05:55:28;9.57;;;3.67;;
28166;SDS011;15455;53.376;-6.262;2023-04-25T05:58:16;8.00;;;4.50;;
28166;SDS011;15455;53.376;-6.262;2023-04-25T06:01:01;6.85;;;3.97;;
28166;SDS011;15455;53.376;-6.262;2023-04-25T06:03:47;8.85;;;4.05;;
28166;SDS011;15455;53.376;-6.262;2023-04-25T06:06:35;10.85;;;4.20;;
28166;SDS011;15455;53.376;-6.262;2023-04-25T06:09:20;9.40;;;3.83;;
28166;SDS011;15455;53.376;-6.262;2023-04-25T06:12:06;7.68;;;4.00;;
28166;SDS011;15455;53.376;-6.262;2023-04-25T06:14:53;9.10;;;3.80;;
28166;SDS011;15455;53.376;-6.262;2023-04-25T06:17:39;7.28;;;4.25;;
28166;SDS011;15455;53.376;-6.262;2023-04-25T06:20:25;10.27;;;3.97;;
28166;SDS011;15455;53.376;-6.262;2023-04-25T06:23:14;11.80;;;4.00;;
28166;SDS011;15455;53.376;-6.262;2023-04-25T06:26:09;7.80;;;3.78;;
28166;SDS011;15455;53.376;-6.262;2023-04-25T06:28:57;11.40;;;3.88;;
28166;SDS011;15455;53.376;-6.262;2023-04-25T06:31:42;8.80;;;4.45;;
28166;SDS011;15455;53.376;-6.262;2023-04-25T06:34:28;8.55;;;5.15;;
28166;SDS011;15455;53.376;-6.262;2023-04-25T06:37:17;8.15;;;4.22;;
28166;SDS011;15455;53.376;-6.262;2023-04-25T06:40:02;8.15;;;4.30;;
28166;SDS011;15455;53.376;-6.262;2023-04-25T06:42:48;10.10;;;3.92;;
28166;SDS011;15455;53.376;-6.262;2023-04-25T06:45:52;12.70;;;4.13;;
28166;SDS011;15455;53.376;-6.262;2023-04-25T06:48:39;11.55;;;4.10;;
28166;SDS011;15455;53.376;-6.262;2023-04-25T06:51:24;8.25;;;4.43;;
28166;SDS011;15455;53.376;-6.262;2023-04-25T06:54:14;7.22;;;3.83;;
28166;SDS011;15455;53.376;-6.262;2023-04-25T06:57:11;12.73;;;4.90;;
28166;SDS011;15455;53.376;-6.262;2023-04-25T06:59:57;10.80;;;4.05;;
28166;SDS011;15455;53.376;-6.262;2023-04-25T07:02:45;12.73;;;4.45;;
28166;SDS011;15455;53.376;-6.262;2023-04-25T07:05:31;12.57;;;4.85;;
28166;SDS011;15455;53.376;-6.262;2023-04-25T07:08:17;14.50;;;4.90;;
28166;SDS011;15455;53.376;-6.262;2023-04-25T07:11:04;17.67;;;4.88;;
28166;SDS011;15455;53.376;-6.262;2023-04-25T07:13:49;9.68;;;4.47;;
28166;SDS011;15455;53.376;-6.262;2023-04-25T07:16:34;15.00;;;4.10;;
28166;SDS011;15455;53.376;-6.262;2023-04-25T07:19:20;6.85;;;3.20;;
28166;SDS011;15455;53.376;-6.262;2023-04-25T07:22:06;7.95;;;3.75;;
28166;SDS011;15455;53.376;-6.262;2023-04-25T07:24:54;15.10;;;4.00;;
28166;SDS011;15455;53.376;-6.262;2023-04-25T07:27:43;15.45;;;4.07;;
28166;SDS011;15455;53.376;-6.262;2023-04-25T07:30:35;8.13;;;4.15;;
28166;SDS011;15455;53.376;-6.262;2023-04-25T07:33:21;12.10;;;3.40;;
28166;SDS011;15455;53.376;-6.262;2023-04-25T07:36:08;11.23;;;3.13;;
28166;SDS011;15455;53.376;-6.262;2023-04-25T07:38:54;6.88;;;2.58;;
28166;SDS011;15455;53.376;-6.262;2023-04-25T07:41:39;10.00;;;4.03;;
28166;SDS011;15455;53.376;-6.262;2023-04-25T07:44:29;10.15;;;3.10;;
28166;SDS011;15455;53.376;-6.262;2023-04-25T07:47:16;11.18;;;4.03;;
28166;SDS011;15455;53.376;-6.262;2023-04-25T07:50:03;7.22;;;2.60;;
28166;SDS011;15455;53.376;-6.262;2023-04-25T07:52:49;10.05;;;3.00;;
28166;SDS011;15455;53.376;-6.262;2023-04-25T07:55:50;4.68;;;2.67;;
28166;SDS011;15455;53.376;-6.262;2023-04-25T07:58:37;7.07;;;3.05;;
28166;SDS011;15455;53.376;-6.262;2023-04-25T08:01:26;8.77;;;3.08;;
28166;SDS011;15455;53.376;-6.262;2023-04-25T08:04:18;17.23;;;3.10;;
28166;SDS011;15455;53.376;-6.262;2023-04-25T08:07:19;6.60;;;3.30;;
28166;SDS011;15455;53.376;-6.262;2023-04-25T08:10:10;6.82;;;2.97;;
28166;SDS011;15455;53.376;-6.262;2023-04-25T08:12:57;7.72;;;3.28;;
28166;SDS011;15455;53.376;-6.262;2023-04-25T08:15:44;10.68;;;4.07;;
28166;SDS011;15455;53.376;-6.262;2023-04-25T08:18:30;8.82;;;3.60;;
28166;SDS011;15455;53.376;-6.262;2023-04-25T08:21:15;8.82;;;3.60;;
28166;SDS011;15455;53.376;-6.262;2023-04-25T08:24:02;15.80;;;3.88;;
28166;SDS011;15455;53.376;-6.262;2023-04-25T08:26:51;9.40;;;3.78;;
28166;SDS011;15455;53.376;-6.262;2023-04-25T08:29:39;5.63;;;2.13;;
28166;SDS011;15455;53.376;-6.262;2023-04-25T08:32:24;5.95;;;2.88;;
28166;SDS011;15455;53.376;-6.262;2023-04-25T08:35:35;11.88;;;3.10;;
28166;SDS011;15455;53.376;-6.262;2023-04-25T08:38:20;6.20;;;2.75;;
28166;SDS011;15455;53.376;-6.262;2023-04-25T08:41:07;7.07;;;3.03;;
28166;SDS011;15455;53.376;-6.262;2023-04-25T08:43:56;12.50;;;3.58;;
28166;SDS011;15455;53.376;-6.262;2023-04-25T08:46:45;8.18;;;3.40;;
28166;SDS011;15455;53.376;-6.262;2023-04-25T08:49:49;10.98;;;2.60;;
28166;SDS011;15455;53.376;-6.262;2023-04-25T08:52:37;7.20;;;2.70;;
28166;SDS011;15455;53.376;-6.262;2023-04-25T08:55:28;8.45;;;2.78;;
28166;SDS011;15455;53.376;-6.262;2023-04-25T08:58:16;6.95;;;2.60;;
28166;SDS011;15455;53.376;-6.262;2023-04-25T09:01:03;4.70;;;1.25;;
28166;SDS011;15455;53.376;-6.262;2023-04-25T09:03:59;7.30;;;1.67;;
28166;SDS011;15455;53.376;-6.262;2023-04-25T09:06:45;4.43;;;1.70;;
28166;SDS011;15455;53.376;-6.262;2023-04-25T09:09:32;3.97;;;1.70;;
28166;SDS011;15455;53.376;-6.262;2023-04-25T09:12:18;3.30;;;1.75;;
28166;SDS011;15455;53.376;-6.262;2023-04-25T09:15:06;8.48;;;1.30;;
28166;SDS011;15455;53.376;-6.262;2023-04-25T09:18:09;4.38;;;1.75;;
28166;SDS011;15455;53.376;-6.262;2023-04-25T09:23:58;5.35;;;1.50;;
28166;SDS011;15455;53.376;-6.262;2023-04-25T09:26:45;3.88;;;1.33;;
28166;SDS011;15455;53.376;-6.262;2023-04-25T09:29:32;6.70;;;1.63;;
28166;SDS011;15455;53.376;-6.262;2023-04-25T09:32:21;2.42;;;1.40;;
28166;SDS011;15455;53.376;-6.262;2023-04-25T09:35:23;3.08;;;1.13;;
28166;SDS011;15455;53.376;-6.262;2023-04-25T09:38:12;5.55;;;1.65;;
28166;SDS011;15455;53.376;-6.262;2023-04-25T09:41:37;4.72;;;1.27;;
28166;SDS011;15455;53.376;-6.262;2023-04-25T09:44:24;3.72;;;1.52;;
28166;SDS011;15455;53.376;-6.262;2023-04-25T09:47:11;5.30;;;1.35;;
28166;SDS011;15455;53.376;-6.262;2023-04-25T09:50:00;2.45;;;1.60;;
28166;SDS011;15455;53.376;-6.262;2023-04-25T09:52:46;6.00;;;1.48;;
28166;SDS011;15455;53.376;-6.262;2023-04-25T09:55:51;12.77;;;2.72;;
28166;SDS011;15455;53.376;-6.262;2023-04-25T09:58:38;3.88;;;1.30;;
28166;SDS011;15455;53.376;-6.262;2023-04-25T10:01:25;7.97;;;1.63;;
28166;SDS011;15455;53.376;-6.262;2023-04-25T10:04:27;6.38;;;1.42;;
28166;SDS011;15455;53.376;-6.262;2023-04-25T10:07:34;3.33;;;1.35;;
28166;SDS011;15455;53.376;-6.262;2023-04-25T10:10:27;4.35;;;1.23;;
28166;SDS011;15455;53.376;-6.262;2023-04-25T10:13:15;3.65;;;1.40;;
28166;SDS011;15455;53.376;-6.262;2023-04-25T10:16:02;3.50;;;1.42;;
28166;SDS011;15455;53.376;-6.262;2023-04-25T10:18:49;3.42;;;1.15;;
28166;SDS011;15455;53.376;-6.262;2023-04-25T10:21:35;6.80;;;1.38;;
28166;SDS011;15455;53.376;-6.262;2023-04-25T10:24:31;1.08;;;0.95;;
28166;SDS011;15455;53.376;-6.262;2023-04-25T10:27:17;5.63;;;1.33;;
28166;SDS011;15455;53.376;-6.262;2023-04-25T10:30:06;4.75;;;1.27;;
28166;SDS011;15455;53.376;-6.262;2023-04-25T10:32:56;5.95;;;1.60;;
28166;SDS011;15455;53.376;-6.262;2023-04-25T10:35:43;5.25;;;1.13;;
28166;SDS011;15455;53.376;-6.262;2023-04-25T10:38:29;5.55;;;0.98;;
28166;SDS011;15455;53.376;-6.262;2023-04-25T10:41:17;8.43;;;1.02;;
28166;SDS011;15455;53.376;-6.262;2023-04-25T10:44:04;2.50;;;0.88;;
28166;SDS011;15455;53.376;-6.262;2023-04-25T10:46:49;5.50;;;0.80;;
28166;SDS011;15455;53.376;-6.262;2023-04-25T10:49:36;4.05;;;0.73;;
28166;SDS011;15455;53.376;-6.262;2023-04-25T10:55:08;2.78;;;0.73;;
28166;SDS011;15455;53.376;-6.262;2023-04-25T10:57:54;1.83;;;0.60;;
28166;SDS011;15455;53.376;-6.262;2023-04-25T11:00:40;1.15;;;0.73;;
28166;SDS011;15455;53.376;-6.262;2023-04-25T11:03:42;2.67;;;0.93;;
28166;SDS011;15455;53.376;-6.262;2023-04-25T11:06:34;1.15;;;0.68;;
28166;SDS011;15455;53.376;-6.262;2023-04-25T11:09:45;5.60;;;0.90;;
28166;SDS011;15455;53.376;-6.262;2023-04-25T11:12:31;3.42;;;0.70;;
28166;SDS011;15455;53.376;-6.262;2023-04-25T11:15:16;2.67;;;0.75;;
28166;SDS011;15455;53.376;-6.262;2023-04-25T11:18:02;3.47;;;0.80;;
28166;SDS011;15455;53.376;-6.262;2023-04-25T11:20:48;3.42;;;1.20;;
28166;SDS011;15455;53.376;-6.262;2023-04-25T11:23:34;2.67;;;0.80;;
28166;SDS011;15455;53.376;-6.262;2023-04-25T11:26:20;5.65;;;1.20;;
28166;SDS011;15455;53.376;-6.262;2023-04-25T11:29:07;1.55;;;0.70;;
28166;SDS011;15455;53.376;-6.262;2023-04-25T11:31:53;2.50;;;1.00;;
28166;SDS011;15455;53.376;-6.262;2023-04-25T11:34:43;3.22;;;0.90;;
28166;SDS011;15455;53.376;-6.262;2023-04-25T11:37:30;4.32;;;0.75;;
28166;SDS011;15455;53.376;-6.262;2023-04-25T11:40:15;1.27;;;0.73;;
28166;SDS011;15455;53.376;-6.262;2023-04-25T11:43:01;4.43;;;1.08;;
28166;SDS011;15455;53.376;-6.262;2023-04-25T11:45:50;6.07;;;1.17;;
28166;SDS011;15455;53.376;-6.262;2023-04-25T11:48:42;7.20;;;1.40;;
28166;SDS011;15455;53.376;-6.262;2023-04-25T11:51:28;7.95;;;1.23;;
28166;SDS011;15455;53.376;-6.262;2023-04-25T11:54:15;9.18;;;1.02;;
28166;SDS011;15455;53.376;-6.262;2023-04-25T11:57:01;6.97;;;1.17;;
28166;SDS011;15455;53.376;-6.262;2023-04-25T11:59:46;6.25;;;1.33;;
28166;SDS011;15455;53.376;-6.262;2023-04-25T12:02:31;4.35;;;1.35;;
28166;SDS011;15455;53.376;-6.262;2023-04-25T12:05:23;4.85;;;1.23;;
28166;SDS011;15455;53.376;-6.262;2023-04-25T12:08:17;3.40;;;1.23;;
28166;SDS011;15455;53.376;-6.262;2023-04-25T12:11:03;4.97;;;1.63;;
28166;SDS011;15455;53.376;-6.262;2023-04-25T12:13:51;6.60;;;1.50;;
28166;SDS011;15455;53.376;-6.262;2023-04-25T12:16:42;8.63;;;1.10;;
28166;SDS011;15455;53.376;-6.262;2023-04-25T12:19:34;6.85;;;1.80;;
28166;SDS011;15455;53.376;-6.262;2023-04-25T12:22:22;6.22;;;1.42;;
28166;SDS011;15455;53.376;-6.262;2023-04-25T12:25:08;4.40;;;1.45;;
28166;SDS011;15455;53.376;-6.262;2023-04-25T12:27:54;6.22;;;1.55;;
28166;SDS011;15455;53.376;-6.262;2023-04-25T12:33:38;6.35;;;1.63;;
28166;SDS011;15455;53.376;-6.262;2023-04-25T12:36:25;9.05;;;1.63;;
28166;SDS011;15455;53.376;-6.262;2023-04-25T12:39:24;3.65;;;0.98;;
28166;SDS011;15455;53.376;-6.262;2023-04-25T12:42:12;5.10;;;0.82;;
28166;SDS011;15455;53.376;-6.262;2023-04-25T12:44:58;2.45;;;1.23;;
28166;SDS011;15455;53.376;-6.262;2023-04-25T12:47:43;5.50;;;1.40;;
28166;SDS011;15455;53.376;-6.262;2023-04-25T12:50:28;5.15;;;1.30;;
28166;SDS011;15455;53.376;-6.262;2023-04-25T12:53:20;3.83;;;1.42;;
28166;SDS011;15455;53.376;-6.262;2023-04-25T12:56:08;3.70;;;1.10;;
28166;SDS011;15455;53.376;-6.262;2023-04-25T12:58:53;3.03;;;1.42;;
28166;SDS011;15455;53.376;-6.262;2023-04-25T13:01:38;7.82;;;1.40;;
28166;SDS011;15455;53.376;-6.262;2023-04-25T13:04:24;7.60;;;1.80;;
28166;SDS011;15455;53.376;-6.262;2023-04-25T13:07:10;2.80;;;1.20;;
28166;SDS011;15455;53.376;-6.262;2023-04-25T13:09:55;2.80;;;1.10;;
28166;SDS011;15455;53.376;-6.262;2023-04-25T13:12:41;4.00;;;1.15;;
28166;SDS011;15455;53.376;-6.262;2023-04-25T13:15:26;5.63;;;1.05;;
28166;SDS011;15455;53.376;-6.262;2023-04-25T13:18:12;4.68;;;1.20;;
28166;SDS011;15455;53.376;-6.262;2023-04-25T13:20:57;7.38;;;1.70;;
28166;SDS011;15455;53.376;-6.262;2023-04-25T13:23:44;6.72;;;1.27;;
28166;SDS011;15455;53.376;-6.262;2023-04-25T13:26:31;6.57;;;1.30;;
28166;SDS011;15455;53.376;-6.262;2023-04-25T13:29:17;8.48;;;1.75;;
28166;SDS011;15455;53.376;-6.262;2023-04-25T13:32:02;3.08;;;1.55;;
28166;SDS011;15455;53.376;-6.262;2023-04-25T13:34:48;4.47;;;1.45;;
28166;SDS011;15455;53.376;-6.262;2023-04-25T13:37:33;9.82;;;1.80;;
28166;SDS011;15455;53.376;-6.262;2023-04-25T13:40:20;2.40;;;1.38;;
28166;SDS011;15455;53.376;-6.262;2023-04-25T13:43:09;4.38;;;2.30;;
28166;SDS011;15455;53.376;-6.262;2023-04-25T13:45:55;5.13;;;2.20;;
28166;SDS011;15455;53.376;-6.262;2023-04-25T13:48:40;9.07;;;1.85;;
28166;SDS011;15455;53.376;-6.262;2023-04-25T13:51:31;4.53;;;1.70;;
28166;SDS011;15455;53.376;-6.262;2023-04-25T13:54:17;4.85;;;1.77;;
28166;SDS011;15455;53.376;-6.262;2023-04-25T13:57:02;7.57;;;2.10;;
28166;SDS011;15455;53.376;-6.262;2023-04-25T13:59:47;6.82;;;2.17;;
28166;SDS011;15455;53.376;-6.262;2023-04-25T14:02:33;9.73;;;2.50;;
28166;SDS011;15455;53.376;-6.262;2023-04-25T14:05:19;4.45;;;2.45;;
28166;SDS011;15455;53.376;-6.262;2023-04-25T14:08:05;5.68;;;1.70;;
28166;SDS011;15455;53.376;-6.262;2023-04-25T14:10:52;11.93;;;2.00;;
28166;SDS011;15455;53.376;-6.262;2023-04-25T14:13:37;9.55;;;2.28;;
28166;SDS011;15455;53.376;-6.262;2023-04-25T14:16:22;10.25;;;2.47;;
28166;SDS011;15455;53.376;-6.262;2023-04-25T14:19:08;8.77;;;2.00;;
28166;SDS011;15455;53.376;-6.262;2023-04-25T14:21:53;8.95;;;2.05;;
28166;SDS011;15455;53.376;-6.262;2023-04-25T14:24:39;8.88;;;2.50;;
28166;SDS011;15455;53.376;-6.262;2023-04-25T14:27:24;8.30;;;2.08;;
28166;SDS011;15455;53.376;-6.262;2023-04-25T14:30:13;7.72;;;2.20;;
28166;SDS011;15455;53.376;-6.262;2023-04-25T14:32:58;10.43;;;1.85;;
28166;SDS011;15455;53.376;-6.262;2023-04-25T14:35:44;6.95;;;2.10;;
28166;SDS011;15455;53.376;-6.262;2023-04-25T14:38:30;8.48;;;1.80;;
28166;SDS011;15455;53.376;-6.262;2023-04-25T14:41:15;7.35;;;2.03;;
28166;SDS011;15455;53.376;-6.262;2023-04-25T14:44:01;6.80;;;2.03;;
28166;SDS011;15455;53.376;-6.262;2023-04-25T14:46:46;7.05;;;2.20;;
28166;SDS011;15455;53.376;-6.262;2023-04-25T14:49:32;9.65;;;1.80;;
28166;SDS011;15455;53.376;-6.262;2023-04-25T14:52:18;7.22;;;2.05;;
28166;SDS011;15455;53.376;-6.262;2023-04-25T14:55:04;8.43;;;2.72;;
28166;SDS011;15455;53.376;-6.262;2023-04-25T14:57:50;12.65;;;2.38;;
28166;SDS011;15455;53.376;-6.262;2023-04-25T15:00:35;5.20;;;2.17;;
28166;SDS011;15455;53.376;-6.262;2023-04-25T15:03:22;4.20;;;1.45;;
28166;SDS011;15455;53.376;-6.262;2023-04-25T15:06:08;9.68;;;1.83;;
28166;SDS011;15455;53.376;-6.262;2023-04-25T15:08:53;5.10;;;1.42;;
28166;SDS011;15455;53.376;-6.262;2023-04-25T15:11:38;3.17;;;1.88;;
28166;SDS011;15455;53.376;-6.262;2023-04-25T15:14:24;5.32;;;1.83;;
28166;SDS011;15455;53.376;-6.262;2023-04-25T15:17:10;7.72;;;1.80;;
28166;SDS011;15455;53.376;-6.262;2023-04-25T15:19:57;7.28;;;1.52;;
28166;SDS011;15455;53.376;-6.262;2023-04-25T15:22:43;6.60;;;1.63;;
28166;SDS011;15455;53.376;-6.262;2023-04-25T15:25:33;7.50;;;1.67;;
28166;SDS011;15455;53.376;-6.262;2023-04-25T15:28:19;11.80;;;2.10;;
28166;SDS011;15455;53.376;-6.262;2023-04-25T15:31:06;7.45;;;1.50;;
28166;SDS011;15455;53.376;-6.262;2023-04-25T15:33:52;7.70;;;2.13;;
28166;SDS011;15455;53.376;-6.262;2023-04-25T15:36:38;9.38;;;3.30;;
28166;SDS011;15455;53.376;-6.262;2023-04-25T15:39:23;9.18;;;3.38;;
28166;SDS011;15455;53.376;-6.262;2023-04-25T15:42:09;6.32;;;2.20;;
28166;SDS011;15455;53.376;-6.262;2023-04-25T15:44:54;8.38;;;2.90;;
28166;SDS011;15455;53.376;-6.262;2023-04-25T15:47:40;3.45;;;2.15;;
28166;SDS011;15455;53.376;-6.262;2023-04-25T15:50:27;6.25;;;2.17;;
28166;SDS011;15455;53.376;-6.262;2023-04-25T15:53:12;6.78;;;1.90;;
28166;SDS011;15455;53.376;-6.262;2023-04-25T15:55:58;8.73;;;2.20;;
28166;SDS011;15455;53.376;-6.262;2023-04-25T15:58:43;8.82;;;4.10;;
28166;SDS011;15455;53.376;-6.262;2023-04-25T16:01:29;12.57;;;3.70;;
28166;SDS011;15455;53.376;-6.262;2023-04-25T16:04:15;6.72;;;1.65;;
28166;SDS011;15455;53.376;-6.262;2023-04-25T16:07:01;5.75;;;3.03;;
28166;SDS011;15455;53.376;-6.262;2023-04-25T16:09:47;5.13;;;1.63;;
28166;SDS011;15455;53.376;-6.262;2023-04-25T16:12:33;8.98;;;2.00;;
28166;SDS011;15455;53.376;-6.262;2023-04-25T16:15:18;7.63;;;1.60;;
28166;SDS011;15455;53.376;-6.262;2023-04-25T16:18:04;5.93;;;1.90;;
28166;SDS011;15455;53.376;-6.262;2023-04-25T16:20:50;12.82;;;1.98;;
28166;SDS011;15455;53.376;-6.262;2023-04-25T16:23:35;9.43;;;1.83;;
28166;SDS011;15455;53.376;-6.262;2023-04-25T16:26:21;12.48;;;2.45;;
28166;SDS011;15455;53.376;-6.262;2023-04-25T16:29:07;9.65;;;2.55;;
28166;SDS011;15455;53.376;-6.262;2023-04-25T16:31:52;4.00;;;1.70;;
28166;SDS011;15455;53.376;-6.262;2023-04-25T16:34:38;10.75;;;2.80;;
28166;SDS011;15455;53.376;-6.262;2023-04-25T16:37:24;7.97;;;2.03;;
28166;SDS011;15455;53.376;-6.262;2023-04-25T16:40:10;13.98;;;2.22;;
28166;SDS011;15455;53.376;-6.262;2023-04-25T16:42:56;5.90;;;2.53;;
28166;SDS011;15455;53.376;-6.262;2023-04-25T16:45:42;15.45;;;2.80;;
28166;SDS011;15455;53.376;-6.262;2023-04-25T16:48:27;7.47;;;2.53;;
28166;SDS011;15455;53.376;-6.262;2023-04-25T16:51:13;6.45;;;2.47;;